5XCMG HUEN-HUEN
Flight info
| Callsign | 5XCMG |
|---|---|
| Flight time | N/A |
| Altitude | FL070 |
| Route | |
| Aircraft | B350/L-VRDW/C |
Departure
| Time | 2026-05-07 14:51 |
|---|---|
| Airport | Entebbe International Airport (HUEN) |
Arrival
| Time | N/A |
|---|---|
| Airport | Entebbe International Airport (HUEN) |
| Time | Latitude | Longitude | Altitude | Speed | Heading |
|---|---|---|---|---|---|
| 2026-05-07 14:39 | 0.04513 | 32.44189 | 3794 ft | 0 kts | 82° |
| 2026-05-07 14:47 | 0.04520 | 32.44191 | 3794 ft | 2 kts | 323° |
| 2026-05-07 14:47 | 0.04524 | 32.44154 | 3794 ft | 10 kts | 298° |
| 2026-05-07 14:47 | 0.04664 | 32.44100 | 3787 ft | 33 kts | 343° |
| 2026-05-07 14:47 | 0.04858 | 32.44042 | 3777 ft | 15 kts | 322° |
| 2026-05-07 14:48 | 0.04873 | 32.43930 | 3778 ft | 19 kts | 272° |
| 2026-05-07 14:48 | 0.04978 | 32.43876 | 3775 ft | 21 kts | 353° |
| 2026-05-07 14:48 | 0.05060 | 32.43814 | 3774 ft | 4 kts | 262° |
| 2026-05-07 14:48 | 0.05059 | 32.43812 | 3774 ft | 0 kts | 262° |
| 2026-05-07 14:49 | 0.05056 | 32.43788 | 3775 ft | 13 kts | 262° |
| 2026-05-07 14:49 | 0.04973 | 32.43705 | 3776 ft | 18 kts | 171° |
| 2026-05-07 14:49 | 0.04943 | 32.43709 | 3776 ft | 9 kts | 172° |
| 2026-05-07 14:50 | 0.04749 | 32.43735 | 3777 ft | 51 kts | 172° |
| 2026-05-07 14:50 | 0.04186 | 32.43814 | 3781 ft | 109 kts | 172° |
| 2026-05-07 14:50 | 0.03321 | 32.43935 | 3849 ft | 137 kts | 173° |
| 2026-05-07 14:50 | 0.02357 | 32.44048 | 4140 ft | 140 kts | 175° |
| 2026-05-07 14:51 | 0.01414 | 32.44107 | 4544 ft | 136 kts | 183° |
| 2026-05-07 14:51 | 0.00552 | 32.43778 | 4876 ft | 135 kts | 220° |
| 2026-05-07 14:51 | 0.00041 | 32.42990 | 5130 ft | 142 kts | 254° |
| 2026-05-07 14:51 | 0.00075 | 32.41999 | 5402 ft | 147 kts | 287° |
| 2026-05-07 14:52 | 0.00645 | 32.41159 | 5706 ft | 149 kts | 315° |
| 2026-05-07 14:52 | 0.01420 | 32.40443 | 5973 ft | 160 kts | 316° |
| 2026-05-07 14:52 | 0.02269 | 32.39656 | 6216 ft | 171 kts | 315° |
| 2026-05-07 14:52 | 0.03137 | 32.38853 | 6598 ft | 171 kts | 316° |
| 2026-05-07 14:53 | 0.04027 | 32.38069 | 6955 ft | 172 kts | 317° |
| 2026-05-07 14:53 | 0.04915 | 32.37254 | 7273 ft | 175 kts | 315° |
| 2026-05-07 14:53 | 0.05811 | 32.36421 | 7623 ft | 176 kts | 315° |
| 2026-05-07 14:53 | 0.06699 | 32.35576 | 7954 ft | 177 kts | 314° |
| 2026-05-07 14:54 | 0.07582 | 32.34699 | 8212 ft | 182 kts | 313° |
| 2026-05-07 14:54 | 0.08500 | 32.33808 | 8517 ft | 184 kts | 315° |
| 2026-05-07 14:54 | 0.09423 | 32.32946 | 8848 ft | 183 kts | 315° |
| 2026-05-07 14:54 | 0.10336 | 32.32064 | 9150 ft | 184 kts | 315° |
| 2026-05-07 14:55 | 0.11193 | 32.31137 | 9474 ft | 184 kts | 315° |
| 2026-05-07 14:55 | 0.12070 | 32.30192 | 9742 ft | 186 kts | 315° |
| 2026-05-07 14:55 | 0.12956 | 32.29241 | 10006 ft | 188 kts | 315° |
| 2026-05-07 14:55 | 0.13851 | 32.28286 | 10270 ft | 190 kts | 315° |
| 2026-05-07 14:56 | 0.14760 | 32.27323 | 10530 ft | 192 kts | 315° |
| 2026-05-07 14:56 | 0.15678 | 32.26356 | 10786 ft | 193 kts | 315° |
| 2026-05-07 14:56 | 0.16606 | 32.25387 | 11038 ft | 195 kts | 315° |
| 2026-05-07 14:56 | 0.17553 | 32.24406 | 11288 ft | 196 kts | 315° |
| 2026-05-07 14:57 | 0.18502 | 32.23432 | 11533 ft | 197 kts | 315° |
| 2026-05-07 14:57 | 0.19507 | 32.22501 | 11770 ft | 198 kts | 322° |
| 2026-05-07 14:57 | 0.20582 | 32.21641 | 12011 ft | 199 kts | 322° |
| 2026-05-07 14:57 | 0.21665 | 32.20780 | 12250 ft | 200 kts | 322° |
| 2026-05-07 14:58 | 0.22749 | 32.19913 | 12492 ft | 200 kts | 322° |
| 2026-05-07 14:58 | 0.23833 | 32.19043 | 12729 ft | 201 kts | 322° |
| 2026-05-07 14:58 | 0.24927 | 32.18161 | 12963 ft | 202 kts | 322° |
| 2026-05-07 14:58 | 0.26016 | 32.17280 | 13191 ft | 202 kts | 322° |
| 2026-05-07 14:59 | 0.27102 | 32.16396 | 13416 ft | 203 kts | 322° |
| 2026-05-07 14:59 | 0.28194 | 32.15506 | 13638 ft | 203 kts | 322° |
| 2026-05-07 14:59 | 0.29287 | 32.14610 | 13887 ft | 205 kts | 322° |
| 2026-05-07 14:59 | 0.30385 | 32.13707 | 14187 ft | 205 kts | 322° |
| 2026-05-07 15:00 | 0.31477 | 32.12802 | 14473 ft | 205 kts | 322° |
| 2026-05-07 15:00 | 0.32577 | 32.11888 | 14746 ft | 205 kts | 322° |
| 2026-05-07 15:00 | 0.33670 | 32.10973 | 15011 ft | 206 kts | 323° |
| 2026-05-07 15:00 | 0.34764 | 32.10053 | 15273 ft | 206 kts | 322° |
| 2026-05-07 15:01 | 0.35858 | 32.09132 | 15530 ft | 207 kts | 322° |
| 2026-05-07 15:01 | 0.36956 | 32.08205 | 15784 ft | 207 kts | 322° |
| 2026-05-07 15:01 | 0.38055 | 32.07272 | 16033 ft | 208 kts | 322° |
| 2026-05-07 15:01 | 0.39152 | 32.06338 | 16278 ft | 208 kts | 322° |
| 2026-05-07 15:02 | 0.40259 | 32.05393 | 16520 ft | 209 kts | 322° |
| 2026-05-07 15:02 | 0.41356 | 32.04453 | 16757 ft | 209 kts | 322° |
| 2026-05-07 15:02 | 0.42456 | 32.03508 | 16991 ft | 209 kts | 322° |
| 2026-05-07 15:02 | 0.43556 | 32.02560 | 17221 ft | 210 kts | 322° |
| 2026-05-07 15:03 | 0.44658 | 32.01606 | 17447 ft | 210 kts | 322° |
| 2026-05-07 15:03 | 0.45758 | 32.00653 | 17669 ft | 210 kts | 322° |
| 2026-05-07 15:03 | 0.46859 | 31.99696 | 17888 ft | 211 kts | 322° |
| 2026-05-07 15:03 | 0.47971 | 31.98728 | 18107 ft | 211 kts | 322° |
| 2026-05-07 15:04 | 0.49075 | 31.97765 | 18319 ft | 211 kts | 322° |
| 2026-05-07 15:04 | 0.50176 | 31.96802 | 18527 ft | 212 kts | 322° |
| 2026-05-07 15:04 | 0.51280 | 31.95835 | 18732 ft | 212 kts | 322° |
| 2026-05-07 15:04 | 0.52383 | 31.94866 | 18935 ft | 212 kts | 322° |
| 2026-05-07 15:05 | 0.53488 | 31.93894 | 19134 ft | 212 kts | 322° |
| 2026-05-07 15:05 | 0.54593 | 31.92921 | 19330 ft | 213 kts | 322° |
| 2026-05-07 15:05 | 0.55710 | 31.91936 | 19524 ft | 213 kts | 322° |
| 2026-05-07 15:05 | 0.56817 | 31.90958 | 19714 ft | 213 kts | 322° |
| 2026-05-07 15:06 | 0.57925 | 31.89978 | 19901 ft | 213 kts | 322° |
| 2026-05-07 15:06 | 0.59039 | 31.88993 | 20018 ft | 218 kts | 322° |
| 2026-05-07 15:06 | 0.60196 | 31.87976 | 20017 ft | 227 kts | 322° |
| 2026-05-07 15:06 | 0.61399 | 31.86923 | 20018 ft | 234 kts | 322° |
| 2026-05-07 15:07 | 0.62645 | 31.85837 | 20015 ft | 241 kts | 322° |
| 2026-05-07 15:07 | 0.63936 | 31.84716 | 20014 ft | 247 kts | 322° |
| 2026-05-07 15:07 | 0.65250 | 31.83579 | 20012 ft | 252 kts | 323° |
| 2026-05-07 15:07 | 0.66587 | 31.82425 | 20010 ft | 257 kts | 323° |
| 2026-05-07 15:08 | 0.67944 | 31.81255 | 20010 ft | 260 kts | 323° |
| 2026-05-07 15:08 | 0.69321 | 31.80071 | 20009 ft | 264 kts | 323° |
| 2026-05-07 15:08 | 0.70716 | 31.78872 | 20008 ft | 266 kts | 323° |
| 2026-05-07 15:08 | 0.72122 | 31.77665 | 20007 ft | 268 kts | 323° |
| 2026-05-07 15:09 | 0.73552 | 31.76439 | 20007 ft | 270 kts | 323° |
| 2026-05-07 15:09 | 0.74980 | 31.75216 | 20006 ft | 272 kts | 323° |
| 2026-05-07 15:09 | 0.76423 | 31.73982 | 20006 ft | 274 kts | 323° |
| 2026-05-07 15:09 | 0.77869 | 31.72745 | 20006 ft | 275 kts | 323° |
| 2026-05-07 15:10 | 0.79288 | 31.71532 | 20017 ft | 275 kts | 323° |
| 2026-05-07 15:10 | 0.80741 | 31.70289 | 20139 ft | 272 kts | 323° |
| 2026-05-07 15:10 | 0.82177 | 31.69060 | 20132 ft | 274 kts | 323° |
| 2026-05-07 15:10 | 0.83632 | 31.67815 | 20135 ft | 275 kts | 323° |
| 2026-05-07 15:11 | 0.85083 | 31.66575 | 20134 ft | 276 kts | 323° |
| 2026-05-07 15:11 | 0.86536 | 31.65334 | 20134 ft | 277 kts | 323° |
| 2026-05-07 15:11 | 0.87994 | 31.64089 | 20134 ft | 277 kts | 323° |
| 2026-05-07 15:11 | 0.89456 | 31.62842 | 20133 ft | 278 kts | 323° |
| 2026-05-07 15:12 | 0.90920 | 31.61593 | 20133 ft | 279 kts | 323° |
| 2026-05-07 15:12 | 0.92384 | 31.60344 | 20133 ft | 279 kts | 323° |
| 2026-05-07 15:12 | 0.93864 | 31.59083 | 20133 ft | 279 kts | 323° |
| 2026-05-07 15:12 | 0.95334 | 31.57830 | 20133 ft | 280 kts | 323° |
| 2026-05-07 15:13 | 0.96809 | 31.56573 | 20133 ft | 280 kts | 323° |
| 2026-05-07 15:13 | 0.98285 | 31.55315 | 20133 ft | 280 kts | 323° |
| 2026-05-07 15:13 | 0.99765 | 31.54056 | 20133 ft | 280 kts | 323° |
| 2026-05-07 15:13 | 1.01242 | 31.52801 | 20133 ft | 280 kts | 323° |
| 2026-05-07 15:14 | 1.02719 | 31.51547 | 20133 ft | 280 kts | 323° |
| 2026-05-07 15:14 | 1.04204 | 31.50287 | 20133 ft | 280 kts | 323° |
| 2026-05-07 15:14 | 1.05679 | 31.49036 | 20133 ft | 280 kts | 323° |
| 2026-05-07 15:14 | 1.07146 | 31.47795 | 20132 ft | 279 kts | 323° |
| 2026-05-07 15:15 | 1.08616 | 31.46551 | 20132 ft | 279 kts | 323° |
| 2026-05-07 15:15 | 1.10038 | 31.45350 | 20132 ft | 279 kts | 323° |
| 2026-05-07 15:15 | 1.11522 | 31.44097 | 20137 ft | 279 kts | 323° |
| 2026-05-07 15:15 | 1.13000 | 31.42852 | 20141 ft | 278 kts | 323° |
| 2026-05-07 15:16 | 1.14474 | 31.41610 | 20086 ft | 274 kts | 323° |
| 2026-05-07 15:16 | 1.15909 | 31.40398 | 19886 ft | 270 kts | 323° |
| 2026-05-07 15:16 | 1.17327 | 31.39202 | 19541 ft | 271 kts | 323° |
| 2026-05-07 15:16 | 1.18767 | 31.37990 | 19150 ft | 272 kts | 323° |
| 2026-05-07 15:17 | 1.20206 | 31.36781 | 18758 ft | 272 kts | 323° |
| 2026-05-07 15:17 | 1.21644 | 31.35577 | 18366 ft | 272 kts | 323° |
| 2026-05-07 15:17 | 1.23075 | 31.34381 | 17973 ft | 272 kts | 323° |
| 2026-05-07 15:17 | 1.24539 | 31.33162 | 17569 ft | 272 kts | 323° |
| 2026-05-07 15:18 | 1.25984 | 31.31961 | 17170 ft | 272 kts | 323° |
| 2026-05-07 15:18 | 1.27429 | 31.30764 | 16771 ft | 271 kts | 323° |
| 2026-05-07 15:18 | 1.28878 | 31.29567 | 16372 ft | 271 kts | 323° |
| 2026-05-07 15:18 | 1.30317 | 31.28383 | 15971 ft | 269 kts | 323° |
| 2026-05-07 15:19 | 1.31751 | 31.27206 | 15571 ft | 268 kts | 323° |
| 2026-05-07 15:19 | 1.33180 | 31.26037 | 15171 ft | 267 kts | 323° |
| 2026-05-07 15:19 | 1.34616 | 31.24866 | 14768 ft | 266 kts | 323° |
| 2026-05-07 15:19 | 1.36038 | 31.23711 | 14369 ft | 265 kts | 323° |
| 2026-05-07 15:20 | 1.37457 | 31.22563 | 13969 ft | 264 kts | 323° |
| 2026-05-07 15:20 | 1.38873 | 31.21421 | 13570 ft | 263 kts | 323° |
| 2026-05-07 15:20 | 1.40287 | 31.20284 | 13172 ft | 262 kts | 323° |
| 2026-05-07 15:20 | 1.41706 | 31.19149 | 12771 ft | 262 kts | 323° |
| 2026-05-07 15:21 | 1.43118 | 31.18026 | 12371 ft | 261 kts | 324° |
| 2026-05-07 15:21 | 1.44754 | 31.17281 | 11963 ft | 257 kts | 344° |
| 2026-05-07 15:21 | 1.46442 | 31.16731 | 11572 ft | 254 kts | 344° |
| 2026-05-07 15:21 | 1.48101 | 31.16189 | 11170 ft | 251 kts | 344° |
| 2026-05-07 15:22 | 1.49737 | 31.15649 | 10767 ft | 247 kts | 344° |
| 2026-05-07 15:22 | 1.51349 | 31.15115 | 10367 ft | 244 kts | 344° |
| 2026-05-07 15:22 | 1.52940 | 31.14588 | 9968 ft | 241 kts | 344° |
| 2026-05-07 15:22 | 1.54508 | 31.14056 | 9560 ft | 239 kts | 339° |
| 2026-05-07 15:23 | 1.55796 | 31.13019 | 9138 ft | 241 kts | 307° |
| 2026-05-07 15:23 | 1.56375 | 31.11461 | 8739 ft | 243 kts | 277° |
| 2026-05-07 15:23 | 1.56098 | 31.09817 | 8348 ft | 242 kts | 250° |
| 2026-05-07 15:23 | 1.55474 | 31.08278 | 7958 ft | 234 kts | 250° |
| 2026-05-07 15:24 | 1.54843 | 31.06840 | 7514 ft | 222 kts | 238° |
| 2026-05-07 15:24 | 1.53607 | 31.06047 | 6834 ft | 225 kts | 187° |
| 2026-05-07 15:24 | 1.52062 | 31.05891 | 6252 ft | 219 kts | 182° |
| 2026-05-07 15:24 | 1.50672 | 31.06111 | 5928 ft | 189 kts | 167° |
| 2026-05-07 15:25 | 1.49411 | 31.06451 | 4807 ft | 206 kts | 169° |
| 2026-05-07 15:25 | 1.48013 | 31.06676 | 3864 ft | 195 kts | 171° |
| 2026-05-07 15:25 | 1.46811 | 31.06944 | 3640 ft | 163 kts | 172° |
| 2026-05-07 15:25 | 1.45794 | 31.07141 | 3526 ft | 134 kts | 169° |
| 2026-05-07 15:26 | 1.44978 | 31.07304 | 3516 ft | 101 kts | 170° |
| 2026-05-07 15:26 | 1.44486 | 31.07397 | 3515 ft | 42 kts | 182° |
| 2026-05-07 15:26 | 1.44429 | 31.07427 | 3515 ft | 20 kts | 340° |
| 2026-05-07 15:26 | 1.44606 | 31.07393 | 3515 ft | 34 kts | 339° |
| 2026-05-07 15:27 | 1.44765 | 31.07204 | 3515 ft | 42 kts | 272° |
| 2026-05-07 15:27 | 1.44761 | 31.06950 | 3515 ft | 18 kts | 221° |
| 2026-05-07 15:27 | 1.44736 | 31.06952 | 3515 ft | 0 kts | 119° |
| 2026-05-07 15:30 | 1.44726 | 31.06970 | 3515 ft | 12 kts | 119° |
| 2026-05-07 15:30 | 1.44675 | 31.07104 | 3515 ft | 29 kts | 73° |
| 2026-05-07 15:30 | 1.44765 | 31.07284 | 3515 ft | 26 kts | 57° |
| 2026-05-07 15:30 | 1.44768 | 31.07360 | 3515 ft | 3 kts | 181° |
| 2026-05-07 15:31 | 1.44767 | 31.07360 | 3515 ft | 0 kts | 181° |
| 2026-05-07 15:32 | 1.44650 | 31.07376 | 3515 ft | 37 kts | 172° |
| 2026-05-07 15:33 | 1.44191 | 31.07464 | 3515 ft | 95 kts | 168° |
| 2026-05-07 15:33 | 1.43405 | 31.07623 | 3518 ft | 133 kts | 169° |
| 2026-05-07 15:33 | 1.42482 | 31.07791 | 3708 ft | 141 kts | 173° |
| 2026-05-07 15:33 | 1.41493 | 31.07923 | 3985 ft | 141 kts | 179° |
| 2026-05-07 15:34 | 1.40564 | 31.07881 | 4335 ft | 134 kts | 197° |
| 2026-05-07 15:34 | 1.39671 | 31.07603 | 4590 ft | 137 kts | 200° |
| 2026-05-07 15:34 | 1.38692 | 31.07569 | 4760 ft | 148 kts | 162° |
| 2026-05-07 15:34 | 1.37899 | 31.08211 | 5015 ft | 150 kts | 117° |
| 2026-05-07 15:35 | 1.37642 | 31.09177 | 5324 ft | 146 kts | 94° |
| 2026-05-07 15:35 | 1.37526 | 31.10230 | 5568 ft | 154 kts | 92° |
| 2026-05-07 15:35 | 1.37435 | 31.11256 | 6030 ft | 144 kts | 90° |
| 2026-05-07 15:35 | 1.37350 | 31.12275 | 6270 ft | 155 kts | 103° |
| 2026-05-07 15:36 | 1.36806 | 31.13249 | 6492 ft | 167 kts | 121° |
| 2026-05-07 15:36 | 1.36178 | 31.14225 | 6862 ft | 166 kts | 118° |
| 2026-05-07 15:36 | 1.35591 | 31.15198 | 7233 ft | 165 kts | 118° |
| 2026-05-07 15:36 | 1.34987 | 31.16187 | 7519 ft | 169 kts | 117° |
| 2026-05-07 15:37 | 1.34371 | 31.17199 | 7842 ft | 170 kts | 119° |
| 2026-05-07 15:37 | 1.33746 | 31.18177 | 8233 ft | 166 kts | 120° |
| 2026-05-07 15:37 | 1.33100 | 31.19131 | 8534 ft | 168 kts | 121° |
| 2026-05-07 15:37 | 1.32414 | 31.20110 | 8693 ft | 178 kts | 123° |
| 2026-05-07 15:38 | 1.31655 | 31.21134 | 8861 ft | 185 kts | 124° |
| 2026-05-07 15:38 | 1.30968 | 31.22177 | 9193 ft | 178 kts | 112° |
| 2026-05-07 15:38 | 1.30405 | 31.23275 | 9496 ft | 180 kts | 116° |
| 2026-05-07 15:38 | 1.29793 | 31.24372 | 9822 ft | 180 kts | 117° |
| 2026-05-07 15:39 | 1.29164 | 31.25448 | 10140 ft | 180 kts | 118° |
| 2026-05-07 15:39 | 1.28524 | 31.26536 | 10417 ft | 183 kts | 118° |
| 2026-05-07 15:39 | 1.27893 | 31.27623 | 10744 ft | 181 kts | 118° |
| 2026-05-07 15:39 | 1.27266 | 31.28713 | 11041 ft | 181 kts | 118° |
| 2026-05-07 15:40 | 1.26640 | 31.29807 | 11320 ft | 182 kts | 118° |
| 2026-05-07 15:40 | 1.26020 | 31.30905 | 11607 ft | 182 kts | 118° |
| 2026-05-07 15:40 | 1.25481 | 31.32056 | 11882 ft | 183 kts | 114° |
| 2026-05-07 15:40 | 1.24959 | 31.33211 | 12140 ft | 184 kts | 114° |
| 2026-05-07 15:41 | 1.24429 | 31.34383 | 12366 ft | 186 kts | 114° |
| 2026-05-07 15:41 | 1.23897 | 31.35560 | 12615 ft | 186 kts | 113° |
| 2026-05-07 15:41 | 1.23364 | 31.36736 | 12860 ft | 187 kts | 113° |
| 2026-05-07 15:41 | 1.22829 | 31.37919 | 13100 ft | 188 kts | 113° |
| 2026-05-07 15:42 | 1.22290 | 31.39109 | 13338 ft | 188 kts | 113° |
| 2026-05-07 15:42 | 1.21747 | 31.40308 | 13574 ft | 189 kts | 113° |
| 2026-05-07 15:42 | 1.21206 | 31.41502 | 13804 ft | 190 kts | 113° |
| 2026-05-07 15:42 | 1.20663 | 31.42700 | 14032 ft | 190 kts | 113° |
| 2026-05-07 15:43 | 1.20119 | 31.43901 | 14256 ft | 191 kts | 113° |
| 2026-05-07 15:43 | 1.19572 | 31.45107 | 14477 ft | 192 kts | 113° |
| 2026-05-07 15:43 | 1.19032 | 31.46299 | 14692 ft | 192 kts | 112° |
| 2026-05-07 15:43 | 1.18774 | 31.46868 | 14793 ft | 192 kts | 112° |
| 2026-05-07 15:44 | 1.18220 | 31.48092 | 15009 ft | 193 kts | 112° |
| 2026-05-07 15:44 | 1.17666 | 31.49314 | 15220 ft | 194 kts | 112° |
| 2026-05-07 15:44 | 1.17111 | 31.50539 | 15428 ft | 194 kts | 112° |
| 2026-05-07 15:44 | 1.16552 | 31.51774 | 15635 ft | 195 kts | 112° |
| 2026-05-07 15:45 | 1.15994 | 31.53004 | 15837 ft | 196 kts | 112° |
| 2026-05-07 15:45 | 1.15433 | 31.54243 | 16037 ft | 196 kts | 112° |
| 2026-05-07 15:45 | 1.14868 | 31.55490 | 16236 ft | 197 kts | 112° |
| 2026-05-07 15:45 | 1.14298 | 31.56748 | 16432 ft | 198 kts | 112° |
| 2026-05-07 15:46 | 1.13161 | 31.59256 | 16816 ft | 199 kts | 112° |
| 2026-05-07 15:46 | 1.12591 | 31.60516 | 17004 ft | 200 kts | 112° |
| 2026-05-07 15:46 | 1.12018 | 31.61781 | 17190 ft | 201 kts | 112° |
| 2026-05-07 15:47 | 1.11444 | 31.63047 | 17375 ft | 201 kts | 112° |
| 2026-05-07 15:47 | 1.10868 | 31.64317 | 17560 ft | 202 kts | 111° |
| 2026-05-07 15:47 | 1.10285 | 31.65603 | 17746 ft | 202 kts | 111° |
| 2026-05-07 15:47 | 1.09705 | 31.66883 | 17932 ft | 203 kts | 111° |
| 2026-05-07 15:48 | 1.09126 | 31.68161 | 18114 ft | 203 kts | 111° |
| 2026-05-07 15:48 | 1.08544 | 31.69445 | 18293 ft | 204 kts | 111° |
| 2026-05-07 15:48 | 1.07959 | 31.70737 | 18470 ft | 204 kts | 111° |
| 2026-05-07 15:48 | 1.07374 | 31.72027 | 18644 ft | 205 kts | 111° |
| 2026-05-07 15:49 | 1.06784 | 31.73328 | 18816 ft | 205 kts | 111° |
| 2026-05-07 15:49 | 1.06190 | 31.74638 | 18987 ft | 206 kts | 111° |
| 2026-05-07 15:49 | 1.05600 | 31.75941 | 19153 ft | 207 kts | 111° |
| 2026-05-07 15:49 | 1.05008 | 31.77246 | 19316 ft | 207 kts | 111° |
| 2026-05-07 15:50 | 1.04415 | 31.78556 | 19477 ft | 208 kts | 111° |
| 2026-05-07 15:50 | 1.03820 | 31.79868 | 19635 ft | 208 kts | 111° |
| 2026-05-07 15:50 | 1.03223 | 31.81186 | 19790 ft | 209 kts | 111° |
| 2026-05-07 15:50 | 1.02624 | 31.82508 | 19944 ft | 209 kts | 111° |
| 2026-05-07 15:51 | 1.02020 | 31.83839 | 20096 ft | 210 kts | 111° |
| 2026-05-07 15:51 | 1.01420 | 31.85163 | 20244 ft | 210 kts | 111° |
| 2026-05-07 15:51 | 1.00816 | 31.86496 | 20391 ft | 211 kts | 111° |
| 2026-05-07 15:51 | 1.00219 | 31.87814 | 20533 ft | 212 kts | 111° |
| 2026-05-07 15:52 | 0.99606 | 31.89165 | 20677 ft | 212 kts | 111° |
| 2026-05-07 15:52 | 0.98999 | 31.90505 | 20818 ft | 213 kts | 111° |
| 2026-05-07 15:52 | 0.98389 | 31.91851 | 20956 ft | 213 kts | 111° |
| 2026-05-07 15:52 | 0.97773 | 31.93209 | 21092 ft | 214 kts | 111° |
| 2026-05-07 15:53 | 0.97160 | 31.94562 | 21228 ft | 214 kts | 111° |
| 2026-05-07 15:53 | 0.96545 | 31.95920 | 21359 ft | 215 kts | 110° |
| 2026-05-07 15:53 | 0.95929 | 31.97279 | 21489 ft | 215 kts | 110° |
| 2026-05-07 15:53 | 0.95312 | 31.98638 | 21617 ft | 216 kts | 110° |
| 2026-05-07 15:54 | 0.94693 | 32.00005 | 21739 ft | 217 kts | 110° |
| 2026-05-07 15:54 | 0.94071 | 32.01376 | 21863 ft | 217 kts | 110° |
| 2026-05-07 15:54 | 0.93442 | 32.02763 | 21987 ft | 218 kts | 110° |
| 2026-05-07 15:54 | 0.92818 | 32.04141 | 22106 ft | 219 kts | 110° |
| 2026-05-07 15:55 | 0.92191 | 32.05524 | 22223 ft | 219 kts | 110° |
| 2026-05-07 15:55 | 0.91561 | 32.06914 | 22342 ft | 220 kts | 110° |
| 2026-05-07 15:55 | 0.90931 | 32.08304 | 22456 ft | 221 kts | 110° |
| 2026-05-07 15:55 | 0.90299 | 32.09697 | 22568 ft | 221 kts | 110° |
| 2026-05-07 15:56 | 0.89664 | 32.11098 | 22677 ft | 222 kts | 110° |
| 2026-05-07 15:56 | 0.89024 | 32.12511 | 22784 ft | 223 kts | 110° |
| 2026-05-07 15:56 | 0.88388 | 32.13913 | 22888 ft | 223 kts | 110° |
| 2026-05-07 15:56 | 0.87747 | 32.15325 | 22992 ft | 224 kts | 110° |
| 2026-05-07 15:57 | 0.87106 | 32.16740 | 23092 ft | 224 kts | 110° |
| 2026-05-07 15:57 | 0.86465 | 32.18153 | 23192 ft | 225 kts | 110° |
| 2026-05-07 15:57 | 0.85820 | 32.19576 | 23289 ft | 225 kts | 110° |
| 2026-05-07 15:57 | 0.85175 | 32.20999 | 23386 ft | 226 kts | 110° |
| 2026-05-07 15:58 | 0.84525 | 32.22434 | 23481 ft | 226 kts | 110° |
| 2026-05-07 15:58 | 0.83875 | 32.23866 | 23576 ft | 227 kts | 110° |
| 2026-05-07 15:58 | 0.83226 | 32.25299 | 23667 ft | 228 kts | 110° |
| 2026-05-07 15:58 | 0.82573 | 32.26738 | 23759 ft | 228 kts | 110° |
| 2026-05-07 15:59 | 0.81919 | 32.28180 | 23848 ft | 229 kts | 110° |
| 2026-05-07 15:59 | 0.81264 | 32.29625 | 23938 ft | 229 kts | 110° |
| 2026-05-07 15:59 | 0.80607 | 32.31073 | 24025 ft | 230 kts | 110° |
| 2026-05-07 15:59 | 0.79943 | 32.32537 | 24112 ft | 230 kts | 110° |
| 2026-05-07 16:00 | 0.79283 | 32.33994 | 24197 ft | 231 kts | 110° |
| 2026-05-07 16:00 | 0.78623 | 32.35449 | 24281 ft | 231 kts | 110° |
| 2026-05-07 16:00 | 0.77959 | 32.36914 | 24364 ft | 232 kts | 110° |
| 2026-05-07 16:00 | 0.77297 | 32.38373 | 24445 ft | 232 kts | 110° |
| 2026-05-07 16:01 | 0.76630 | 32.39844 | 24524 ft | 233 kts | 110° |
| 2026-05-07 16:01 | 0.75963 | 32.41315 | 24602 ft | 233 kts | 110° |
| 2026-05-07 16:01 | 0.75291 | 32.42796 | 24680 ft | 234 kts | 110° |
| 2026-05-07 16:01 | 0.74623 | 32.44271 | 24755 ft | 234 kts | 110° |
| 2026-05-07 16:02 | 0.73950 | 32.45754 | 24829 ft | 235 kts | 110° |
| 2026-05-07 16:02 | 0.73278 | 32.47235 | 24903 ft | 235 kts | 110° |
| 2026-05-07 16:02 | 0.72606 | 32.48719 | 24975 ft | 235 kts | 110° |
| 2026-05-07 16:02 | 0.71930 | 32.50209 | 25027 ft | 236 kts | 110° |
| 2026-05-07 16:03 | 0.71248 | 32.51712 | 25026 ft | 239 kts | 110° |
| 2026-05-07 16:03 | 0.70555 | 32.53242 | 25026 ft | 241 kts | 110° |
| 2026-05-07 16:03 | 0.69864 | 32.54765 | 25024 ft | 242 kts | 110° |
| 2026-05-07 16:03 | 0.69169 | 32.56297 | 25024 ft | 243 kts | 110° |
| 2026-05-07 16:04 | 0.68469 | 32.57841 | 25027 ft | 246 kts | 110° |
| 2026-05-07 16:04 | 0.67761 | 32.59401 | 25026 ft | 248 kts | 110° |
| 2026-05-07 16:04 | 0.67049 | 32.60971 | 25026 ft | 250 kts | 110° |
| 2026-05-07 16:04 | 0.66329 | 32.62557 | 25025 ft | 251 kts | 110° |
| 2026-05-07 16:05 | 0.65602 | 32.64160 | 25025 ft | 253 kts | 110° |
| 2026-05-07 16:05 | 0.64875 | 32.65763 | 25026 ft | 255 kts | 110° |
| 2026-05-07 16:05 | 0.64143 | 32.67378 | 25027 ft | 256 kts | 110° |
| 2026-05-07 16:05 | 0.63409 | 32.68997 | 25027 ft | 258 kts | 110° |
| 2026-05-07 16:06 | 0.62667 | 32.70632 | 25026 ft | 259 kts | 110° |
| 2026-05-07 16:06 | 0.61923 | 32.72272 | 25026 ft | 260 kts | 110° |
| 2026-05-07 16:06 | 0.61175 | 32.73921 | 25026 ft | 262 kts | 110° |
| 2026-05-07 16:06 | 0.60417 | 32.75592 | 25026 ft | 263 kts | 110° |
| 2026-05-07 16:07 | 0.59663 | 32.77253 | 25026 ft | 264 kts | 110° |
| 2026-05-07 16:07 | 0.58906 | 32.78924 | 25026 ft | 265 kts | 110° |
| 2026-05-07 16:07 | 0.58147 | 32.80596 | 25026 ft | 265 kts | 110° |
| 2026-05-07 16:07 | 0.57385 | 32.82277 | 25025 ft | 266 kts | 110° |
| 2026-05-07 16:08 | 0.56622 | 32.83959 | 25025 ft | 267 kts | 110° |
| 2026-05-07 16:08 | 0.55855 | 32.85649 | 25025 ft | 268 kts | 110° |
| 2026-05-07 16:08 | 0.55084 | 32.87349 | 25025 ft | 268 kts | 111° |
| 2026-05-07 16:08 | 0.54313 | 32.89048 | 25025 ft | 269 kts | 111° |
| 2026-05-07 16:09 | 0.53543 | 32.90747 | 25024 ft | 269 kts | 111° |
| 2026-05-07 16:09 | 0.52772 | 32.92447 | 25024 ft | 270 kts | 111° |
| 2026-05-07 16:09 | 0.51998 | 32.94151 | 25024 ft | 270 kts | 111° |
| 2026-05-07 16:09 | 0.51222 | 32.95863 | 25024 ft | 271 kts | 111° |
| 2026-05-07 16:10 | 0.50445 | 32.97576 | 25024 ft | 271 kts | 111° |
| 2026-05-07 16:10 | 0.49664 | 32.99297 | 25025 ft | 272 kts | 111° |
| 2026-05-07 16:10 | 0.48884 | 33.01016 | 25024 ft | 272 kts | 111° |
| 2026-05-07 16:10 | 0.48104 | 33.02737 | 25024 ft | 273 kts | 111° |
| 2026-05-07 16:11 | 0.47323 | 33.04458 | 25024 ft | 273 kts | 111° |
| 2026-05-07 16:11 | 0.46538 | 33.06188 | 25024 ft | 273 kts | 111° |
| 2026-05-07 16:11 | 0.45760 | 33.07903 | 25025 ft | 274 kts | 111° |
| 2026-05-07 16:11 | 0.44975 | 33.09633 | 25024 ft | 274 kts | 111° |
| 2026-05-07 16:12 | 0.44182 | 33.11381 | 25024 ft | 275 kts | 111° |
| 2026-05-07 16:12 | 0.43397 | 33.13113 | 25024 ft | 275 kts | 111° |
| 2026-05-07 16:12 | 0.42608 | 33.14852 | 25025 ft | 275 kts | 111° |
| 2026-05-07 16:12 | 0.41820 | 33.16589 | 25025 ft | 276 kts | 111° |
| 2026-05-07 16:13 | 0.41028 | 33.18333 | 25025 ft | 276 kts | 111° |
| 2026-05-07 16:13 | 0.40238 | 33.20074 | 25025 ft | 276 kts | 111° |
| 2026-05-07 16:13 | 0.39445 | 33.21822 | 25025 ft | 276 kts | 111° |
| 2026-05-07 16:13 | 0.38647 | 33.23582 | 25025 ft | 277 kts | 111° |
| 2026-05-07 16:14 | 0.37853 | 33.25331 | 25024 ft | 277 kts | 111° |
| 2026-05-07 16:14 | 0.37061 | 33.27079 | 25025 ft | 277 kts | 111° |
| 2026-05-07 16:14 | 0.36267 | 33.28828 | 25024 ft | 277 kts | 111° |
| 2026-05-07 16:14 | 0.35473 | 33.30578 | 25025 ft | 277 kts | 111° |
| 2026-05-07 16:15 | 0.34678 | 33.32330 | 25024 ft | 277 kts | 111° |
| 2026-05-07 16:15 | 0.33888 | 33.34072 | 25025 ft | 277 kts | 111° |
| 2026-05-07 16:15 | 0.33087 | 33.35836 | 25025 ft | 278 kts | 111° |
| 2026-05-07 16:15 | 0.32292 | 33.37590 | 25024 ft | 278 kts | 111° |
| 2026-05-07 16:16 | 0.31495 | 33.39346 | 25024 ft | 278 kts | 111° |
| 2026-05-07 16:16 | 0.30701 | 33.41097 | 25025 ft | 278 kts | 111° |
| 2026-05-07 16:16 | 0.29903 | 33.42856 | 25025 ft | 278 kts | 111° |
| 2026-05-07 16:16 | 0.29104 | 33.44616 | 25025 ft | 278 kts | 111° |
| 2026-05-07 16:17 | 0.28307 | 33.46373 | 25025 ft | 278 kts | 111° |
| 2026-05-07 16:17 | 0.27508 | 33.48134 | 25029 ft | 280 kts | 111° |
| 2026-05-07 16:17 | 0.26703 | 33.49910 | 25046 ft | 283 kts | 111° |
| 2026-05-07 16:17 | 0.25891 | 33.51699 | 25070 ft | 284 kts | 111° |
| 2026-05-07 16:18 | 0.25074 | 33.53500 | 25100 ft | 286 kts | 111° |
| 2026-05-07 16:18 | 0.24247 | 33.55321 | 25134 ft | 287 kts | 111° |
| 2026-05-07 16:18 | 0.23423 | 33.57137 | 25171 ft | 288 kts | 111° |
| 2026-05-07 16:18 | 0.22598 | 33.58956 | 25210 ft | 289 kts | 111° |
| 2026-05-07 16:19 | 0.21768 | 33.60786 | 25252 ft | 290 kts | 111° |
| 2026-05-07 16:19 | 0.20938 | 33.62614 | 25296 ft | 290 kts | 111° |
| 2026-05-07 16:19 | 0.20105 | 33.64450 | 25341 ft | 291 kts | 111° |
| 2026-05-07 16:19 | 0.19265 | 33.66302 | 25388 ft | 291 kts | 111° |
| 2026-05-07 16:20 | 0.18430 | 33.68141 | 25436 ft | 292 kts | 111° |
| 2026-05-07 16:20 | 0.17592 | 33.69988 | 25484 ft | 292 kts | 111° |
| 2026-05-07 16:20 | 0.16757 | 33.71829 | 25532 ft | 292 kts | 111° |
| 2026-05-07 16:20 | 0.15921 | 33.73671 | 25581 ft | 293 kts | 111° |
| 2026-05-07 16:21 | 0.15082 | 33.75521 | 25629 ft | 293 kts | 111° |
| 2026-05-07 16:21 | 0.14242 | 33.77372 | 25677 ft | 293 kts | 111° |
| 2026-05-07 16:21 | 0.13395 | 33.79237 | 25725 ft | 293 kts | 111° |
| 2026-05-07 16:21 | 0.12555 | 33.81090 | 25773 ft | 294 kts | 111° |
| 2026-05-07 16:22 | 0.11713 | 33.82946 | 25820 ft | 294 kts | 111° |
| 2026-05-07 16:22 | 0.10872 | 33.84798 | 25868 ft | 294 kts | 111° |
| 2026-05-07 16:22 | 0.10030 | 33.86655 | 25915 ft | 294 kts | 111° |
| 2026-05-07 16:22 | 0.09189 | 33.88508 | 25962 ft | 294 kts | 111° |
| 2026-05-07 16:23 | 0.08344 | 33.90371 | 26008 ft | 295 kts | 111° |
| 2026-05-07 16:23 | 0.07491 | 33.92251 | 26055 ft | 295 kts | 111° |
| 2026-05-07 16:23 | 0.06648 | 33.94108 | 26100 ft | 295 kts | 111° |
| 2026-05-07 16:23 | 0.05803 | 33.95971 | 26146 ft | 295 kts | 111° |
| 2026-05-07 16:24 | 0.04959 | 33.97830 | 26191 ft | 295 kts | 111° |
| 2026-05-07 16:24 | 0.04115 | 33.99691 | 26236 ft | 296 kts | 111° |
| 2026-05-07 16:24 | 0.03268 | 34.01557 | 26280 ft | 296 kts | 111° |
| 2026-05-07 16:24 | 0.02421 | 34.03425 | 26325 ft | 296 kts | 111° |
| 2026-05-07 16:25 | 0.01572 | 34.05296 | 26368 ft | 296 kts | 111° |
| 2026-05-07 16:25 | 0.00723 | 34.07166 | 26411 ft | 296 kts | 111° |
| 2026-05-07 16:25 | -0.00132 | 34.09052 | 26455 ft | 296 kts | 111° |
| 2026-05-07 16:25 | -0.00982 | 34.10924 | 26498 ft | 297 kts | 111° |
| 2026-05-07 16:26 | -0.01833 | 34.12799 | 26541 ft | 297 kts | 111° |
| 2026-05-07 16:26 | -0.02682 | 34.14672 | 26583 ft | 297 kts | 111° |
| 2026-05-07 16:26 | -0.03535 | 34.16552 | 26625 ft | 297 kts | 111° |
| 2026-05-07 16:26 | -0.04386 | 34.18427 | 26667 ft | 297 kts | 111° |
| 2026-05-07 16:27 | -0.05235 | 34.20299 | 26709 ft | 298 kts | 111° |
| 2026-05-07 16:27 | -0.06093 | 34.22189 | 26751 ft | 298 kts | 111° |
| 2026-05-07 16:27 | -0.06945 | 34.24067 | 26792 ft | 298 kts | 111° |
| 2026-05-07 16:27 | -0.07799 | 34.25948 | 26833 ft | 298 kts | 111° |
| 2026-05-07 16:28 | -0.08652 | 34.27828 | 26874 ft | 298 kts | 111° |
| 2026-05-07 16:28 | -0.09506 | 34.29712 | 26914 ft | 298 kts | 111° |
| 2026-05-07 16:28 | -0.10363 | 34.31600 | 26952 ft | 298 kts | 111° |
| 2026-05-07 16:28 | -0.11147 | 34.33326 | 26982 ft | 299 kts | 111° |
| 2026-05-07 16:29 | -0.12042 | 34.35299 | 27016 ft | 299 kts | 111° |
| 2026-05-07 16:29 | -0.12900 | 34.37190 | 27024 ft | 300 kts | 111° |
| 2026-05-07 16:29 | -0.13760 | 34.39087 | 27024 ft | 301 kts | 111° |
| 2026-05-07 16:29 | -0.14623 | 34.40988 | 27024 ft | 302 kts | 111° |
| 2026-05-07 16:30 | -0.15491 | 34.42902 | 27024 ft | 303 kts | 111° |
| 2026-05-07 16:30 | -0.16361 | 34.44819 | 27024 ft | 304 kts | 111° |
| 2026-05-07 16:30 | -0.17234 | 34.46743 | 27023 ft | 305 kts | 111° |
| 2026-05-07 16:30 | -0.18112 | 34.48678 | 27024 ft | 305 kts | 111° |
| 2026-05-07 16:31 | -0.18991 | 34.50614 | 27023 ft | 306 kts | 111° |
| 2026-05-07 16:31 | -0.19869 | 34.52550 | 27024 ft | 307 kts | 111° |
| 2026-05-07 16:31 | -0.20748 | 34.54488 | 27024 ft | 307 kts | 111° |
| 2026-05-07 16:31 | -0.21628 | 34.56427 | 27023 ft | 307 kts | 111° |
| 2026-05-07 16:32 | -0.22509 | 34.58368 | 27023 ft | 308 kts | 111° |
| 2026-05-07 16:32 | -0.23390 | 34.60310 | 27023 ft | 308 kts | 111° |
| 2026-05-07 16:32 | -0.24278 | 34.62267 | 27024 ft | 309 kts | 111° |
| 2026-05-07 16:32 | -0.25164 | 34.64219 | 27023 ft | 309 kts | 111° |
| 2026-05-07 16:33 | -0.25958 | 34.65970 | 27023 ft | 309 kts | 111° |
| 2026-05-07 16:33 | -0.26905 | 34.68057 | 27023 ft | 309 kts | 111° |
| 2026-05-07 16:33 | -0.27797 | 34.70023 | 27023 ft | 310 kts | 111° |
| 2026-05-07 16:33 | -0.28686 | 34.71983 | 27023 ft | 310 kts | 111° |
| 2026-05-07 16:34 | -0.29574 | 34.73941 | 27024 ft | 310 kts | 111° |
| 2026-05-07 16:34 | -0.30469 | 34.75912 | 27023 ft | 310 kts | 111° |
| 2026-05-07 16:34 | -0.31362 | 34.77880 | 27023 ft | 310 kts | 111° |
| 2026-05-07 16:34 | -0.32249 | 34.79837 | 27023 ft | 310 kts | 111° |
| 2026-05-07 16:35 | -0.33139 | 34.81799 | 27022 ft | 310 kts | 111° |
| 2026-05-07 16:35 | -0.34028 | 34.83757 | 27022 ft | 311 kts | 111° |
| 2026-05-07 16:35 | -0.34919 | 34.85723 | 27022 ft | 311 kts | 111° |
| 2026-05-07 16:35 | -0.35808 | 34.87682 | 27022 ft | 311 kts | 111° |
| 2026-05-07 16:36 | -0.36706 | 34.89661 | 27022 ft | 312 kts | 111° |
| 2026-05-07 16:36 | -0.37603 | 34.91639 | 27023 ft | 312 kts | 111° |
| 2026-05-07 16:36 | -0.38496 | 34.93608 | 27023 ft | 313 kts | 112° |
| 2026-05-07 16:36 | -0.39394 | 34.95588 | 27023 ft | 313 kts | 112° |
| 2026-05-07 16:37 | -0.40294 | 34.97569 | 27023 ft | 314 kts | 112° |
| 2026-05-07 16:37 | -0.41192 | 34.99550 | 27023 ft | 314 kts | 112° |
| 2026-05-07 16:37 | -0.42095 | 35.01542 | 27023 ft | 315 kts | 112° |
| 2026-05-07 16:37 | -0.43003 | 35.03541 | 27023 ft | 315 kts | 112° |
| 2026-05-07 16:38 | -0.43906 | 35.05533 | 27024 ft | 316 kts | 112° |
| 2026-05-07 16:38 | -0.44814 | 35.07533 | 27025 ft | 316 kts | 112° |
| 2026-05-07 16:38 | -0.45722 | 35.09534 | 27025 ft | 317 kts | 112° |
| 2026-05-07 16:38 | -0.46631 | 35.11538 | 27025 ft | 317 kts | 112° |
| 2026-05-07 16:39 | -0.47539 | 35.13541 | 27025 ft | 318 kts | 112° |
| 2026-05-07 16:39 | -0.48453 | 35.15554 | 27025 ft | 318 kts | 112° |
| 2026-05-07 16:39 | -0.49371 | 35.17578 | 27025 ft | 318 kts | 112° |
| 2026-05-07 16:39 | -0.50284 | 35.19592 | 27025 ft | 319 kts | 112° |
| 2026-05-07 16:40 | -0.51196 | 35.21603 | 27025 ft | 319 kts | 112° |
| 2026-05-07 16:40 | -0.52111 | 35.23619 | 27025 ft | 319 kts | 112° |
| 2026-05-07 16:40 | -0.53024 | 35.25632 | 27025 ft | 319 kts | 112° |
| 2026-05-07 16:40 | -0.53936 | 35.27642 | 27025 ft | 319 kts | 112° |
| 2026-05-07 16:41 | -0.54852 | 35.29662 | 27025 ft | 320 kts | 112° |
| 2026-05-07 16:41 | -0.55773 | 35.31693 | 27025 ft | 320 kts | 112° |
| 2026-05-07 16:41 | -0.56687 | 35.33708 | 27025 ft | 320 kts | 112° |
| 2026-05-07 16:41 | -0.57603 | 35.35726 | 27026 ft | 320 kts | 112° |
| 2026-05-07 16:42 | -0.58516 | 35.37740 | 27026 ft | 320 kts | 112° |
| 2026-05-07 16:42 | -0.59418 | 35.39727 | 27027 ft | 320 kts | 112° |
| 2026-05-07 16:42 | -0.60329 | 35.41737 | 27054 ft | 319 kts | 112° |
| 2026-05-07 16:42 | -0.61243 | 35.43752 | 27052 ft | 320 kts | 112° |
| 2026-05-07 16:43 | -0.62160 | 35.45775 | 27053 ft | 320 kts | 112° |
| 2026-05-07 16:43 | -0.63077 | 35.47796 | 27053 ft | 320 kts | 112° |
| 2026-05-07 16:43 | -0.63994 | 35.49818 | 27053 ft | 320 kts | 112° |
| 2026-05-07 16:43 | -0.64911 | 35.51838 | 27053 ft | 321 kts | 112° |
| 2026-05-07 16:44 | -0.65826 | 35.53857 | 27058 ft | 321 kts | 112° |
| 2026-05-07 16:44 | -0.66744 | 35.55881 | 27074 ft | 320 kts | 112° |
| 2026-05-07 16:44 | -0.67655 | 35.57889 | 27088 ft | 320 kts | 112° |
| 2026-05-07 16:44 | -0.68576 | 35.59920 | 27103 ft | 320 kts | 112° |
| 2026-05-07 16:45 | -0.69492 | 35.61939 | 27116 ft | 319 kts | 112° |
| 2026-05-07 16:45 | -0.70403 | 35.63950 | 27130 ft | 319 kts | 112° |
| 2026-05-07 16:45 | -0.71310 | 35.65950 | 27140 ft | 319 kts | 112° |
| 2026-05-07 16:45 | -0.72219 | 35.67953 | 27151 ft | 319 kts | 112° |
| 2026-05-07 16:46 | -0.73130 | 35.69961 | 27163 ft | 319 kts | 112° |
| 2026-05-07 16:46 | -0.74038 | 35.71964 | 27174 ft | 319 kts | 112° |
| 2026-05-07 16:46 | -0.74953 | 35.73983 | 27185 ft | 319 kts | 112° |
| 2026-05-07 16:46 | -0.75863 | 35.75989 | 27195 ft | 319 kts | 112° |
| 2026-05-07 16:47 | -0.76770 | 35.77990 | 27198 ft | 319 kts | 112° |
| 2026-05-07 16:47 | -0.77684 | 35.80006 | 27192 ft | 319 kts | 112° |
| 2026-05-07 16:47 | -0.78594 | 35.82012 | 27188 ft | 320 kts | 112° |
| 2026-05-07 16:47 | -0.79506 | 35.84023 | 27186 ft | 320 kts | 112° |
| 2026-05-07 16:48 | -0.80421 | 35.86040 | 27187 ft | 320 kts | 112° |
| 2026-05-07 16:48 | -0.81334 | 35.88054 | 27188 ft | 320 kts | 112° |
| 2026-05-07 16:48 | -0.82247 | 35.90067 | 27187 ft | 321 kts | 112° |
| 2026-05-07 16:48 | -0.83162 | 35.92086 | 27188 ft | 321 kts | 112° |
| 2026-05-07 16:49 | -0.84072 | 35.94093 | 27187 ft | 321 kts | 112° |
| 2026-05-07 16:49 | -0.84995 | 35.96129 | 27188 ft | 321 kts | 112° |
| 2026-05-07 16:49 | -0.85911 | 35.98148 | 27188 ft | 321 kts | 112° |
| 2026-05-07 16:49 | -0.86828 | 36.00172 | 27188 ft | 321 kts | 112° |
| 2026-05-07 16:50 | -0.87751 | 36.02208 | 27188 ft | 321 kts | 112° |
| 2026-05-07 16:50 | -0.88671 | 36.04237 | 27188 ft | 321 kts | 112° |
| 2026-05-07 16:50 | -0.89589 | 36.06261 | 27188 ft | 322 kts | 112° |
| 2026-05-07 16:50 | -0.90509 | 36.08292 | 27188 ft | 322 kts | 112° |
| 2026-05-07 16:51 | -0.91428 | 36.10317 | 27189 ft | 322 kts | 112° |
| 2026-05-07 16:51 | -0.92343 | 36.12336 | 27188 ft | 322 kts | 112° |
| 2026-05-07 16:51 | -0.93262 | 36.14364 | 27189 ft | 322 kts | 112° |
| 2026-05-07 16:51 | -0.94187 | 36.16403 | 27189 ft | 322 kts | 112° |
| 2026-05-07 16:52 | -0.95106 | 36.18430 | 27189 ft | 322 kts | 112° |
| 2026-05-07 16:52 | -0.96025 | 36.20459 | 27189 ft | 322 kts | 112° |
| 2026-05-07 16:52 | -0.96946 | 36.22490 | 27189 ft | 322 kts | 112° |
| 2026-05-07 16:52 | -0.97869 | 36.24527 | 27189 ft | 322 kts | 112° |
| 2026-05-07 16:53 | -0.98791 | 36.26561 | 27189 ft | 323 kts | 112° |
| 2026-05-07 16:53 | -0.99714 | 36.28597 | 27189 ft | 323 kts | 112° |
| 2026-05-07 16:53 | -1.00643 | 36.30647 | 27189 ft | 323 kts | 112° |
| 2026-05-07 16:53 | -1.01569 | 36.32690 | 27189 ft | 323 kts | 112° |
| 2026-05-07 16:54 | -1.02491 | 36.34725 | 27190 ft | 323 kts | 112° |
| 2026-05-07 16:54 | -1.03417 | 36.36768 | 27190 ft | 324 kts | 112° |
| 2026-05-07 16:54 | -1.04341 | 36.38807 | 27190 ft | 324 kts | 112° |
| 2026-05-07 16:54 | -1.05267 | 36.40851 | 27190 ft | 324 kts | 112° |
| 2026-05-07 16:55 | -1.06186 | 36.42877 | 27190 ft | 324 kts | 112° |
| 2026-05-07 16:55 | -1.07113 | 36.44923 | 27190 ft | 325 kts | 112° |
| 2026-05-07 16:55 | -1.08038 | 36.46964 | 27190 ft | 325 kts | 112° |
| 2026-05-07 16:55 | -1.08970 | 36.49021 | 27191 ft | 325 kts | 112° |
| 2026-05-07 16:56 | -1.09905 | 36.51084 | 27191 ft | 325 kts | 112° |
| 2026-05-07 16:56 | -1.10834 | 36.53133 | 27186 ft | 326 kts | 112° |
| 2026-05-07 16:56 | -1.12683 | 36.57214 | 27187 ft | 326 kts | 113° |
| 2026-05-07 16:57 | -1.13612 | 36.59264 | 27187 ft | 326 kts | 113° |
| 2026-05-07 16:57 | -1.14543 | 36.61317 | 27187 ft | 326 kts | 113° |
| 2026-05-07 16:57 | -1.15473 | 36.63370 | 27187 ft | 326 kts | 113° |
| 2026-05-07 16:57 | -1.16394 | 36.65402 | 27187 ft | 326 kts | 112° |
| 2026-05-07 16:58 | -1.17324 | 36.67456 | 27182 ft | 326 kts | 112° |
| 2026-05-07 16:58 | -1.18254 | 36.69507 | 27183 ft | 326 kts | 112° |
| 2026-05-07 16:58 | -1.19181 | 36.71554 | 27183 ft | 326 kts | 112° |
| 2026-05-07 16:58 | -1.20111 | 36.73606 | 27183 ft | 326 kts | 112° |
| 2026-05-07 16:59 | -1.21038 | 36.75653 | 27181 ft | 326 kts | 112° |
| 2026-05-07 16:59 | -1.21967 | 36.77704 | 27179 ft | 326 kts | 112° |
| 2026-05-07 16:59 | -1.22902 | 36.79768 | 27176 ft | 326 kts | 112° |
| 2026-05-07 16:59 | -1.23829 | 36.81815 | 27175 ft | 326 kts | 112° |
| 2026-05-07 17:00 | -1.24756 | 36.83860 | 27172 ft | 326 kts | 112° |
| 2026-05-07 17:00 | -1.25685 | 36.85911 | 27170 ft | 326 kts | 112° |
| 2026-05-07 17:00 | -1.26614 | 36.87962 | 27168 ft | 326 kts | 112° |
| 2026-05-07 17:00 | -1.27543 | 36.90014 | 27166 ft | 326 kts | 112° |
| 2026-05-07 17:01 | -1.28473 | 36.92067 | 27164 ft | 326 kts | 112° |
| 2026-05-07 17:01 | -1.29407 | 36.94129 | 27161 ft | 326 kts | 113° |
| 2026-05-07 17:01 | -1.30648 | 36.96004 | 27150 ft | 327 kts | 133° |
| 2026-05-07 17:01 | -1.32206 | 36.97629 | 27173 ft | 326 kts | 134° |
| 2026-05-07 17:02 | -1.33784 | 36.99245 | 27157 ft | 327 kts | 134° |
| 2026-05-07 17:02 | -1.35349 | 37.00860 | 27211 ft | 322 kts | 139° |
| 2026-05-07 17:02 | -1.36920 | 37.02440 | 27147 ft | 322 kts | 139° |
| 2026-05-07 17:02 | -1.38479 | 37.04015 | 27156 ft | 319 kts | 139° |
| 2026-05-07 17:03 | -1.40039 | 37.05594 | 27154 ft | 317 kts | 139° |
| 2026-05-07 17:03 | -1.41579 | 37.07152 | 27156 ft | 316 kts | 139° |
| 2026-05-07 17:03 | -1.43113 | 37.08705 | 27156 ft | 315 kts | 139° |
| 2026-05-07 17:03 | -1.44639 | 37.10250 | 27156 ft | 313 kts | 139° |
| 2026-05-07 17:04 | -1.46158 | 37.11787 | 27156 ft | 313 kts | 138° |
| 2026-05-07 17:04 | -1.47676 | 37.13325 | 27157 ft | 312 kts | 138° |
| 2026-05-07 17:04 | -1.49188 | 37.14856 | 27157 ft | 311 kts | 138° |
| 2026-05-07 17:04 | -1.50713 | 37.16399 | 27158 ft | 311 kts | 138° |
| 2026-05-07 17:05 | -1.52221 | 37.17926 | 27158 ft | 311 kts | 138° |
| 2026-05-07 17:05 | -1.53731 | 37.19456 | 27158 ft | 311 kts | 138° |
| 2026-05-07 17:05 | -1.55242 | 37.20986 | 27159 ft | 311 kts | 138° |
| 2026-05-07 17:05 | -1.56755 | 37.22519 | 27160 ft | 311 kts | 138° |
| 2026-05-07 17:06 | -1.58265 | 37.24048 | 27160 ft | 311 kts | 138° |
| 2026-05-07 17:06 | -1.59778 | 37.25581 | 27161 ft | 311 kts | 138° |
| 2026-05-07 17:06 | -1.61304 | 37.27126 | 27161 ft | 311 kts | 138° |
| 2026-05-07 17:06 | -1.62817 | 37.28659 | 27160 ft | 311 kts | 138° |
| 2026-05-07 17:07 | -1.64332 | 37.30193 | 27161 ft | 312 kts | 138° |
| 2026-05-07 17:07 | -1.65847 | 37.31728 | 27161 ft | 312 kts | 138° |
| 2026-05-07 17:07 | -1.67361 | 37.33261 | 27161 ft | 312 kts | 138° |
| 2026-05-07 17:07 | -1.68879 | 37.34799 | 27161 ft | 312 kts | 138° |
| 2026-05-07 17:08 | -1.70397 | 37.36337 | 27161 ft | 312 kts | 138° |
| 2026-05-07 17:08 | -1.71923 | 37.37882 | 27161 ft | 312 kts | 138° |
| 2026-05-07 17:08 | -1.73435 | 37.39414 | 27161 ft | 312 kts | 138° |
| 2026-05-07 17:08 | -1.74952 | 37.40950 | 27161 ft | 312 kts | 138° |
| 2026-05-07 17:09 | -1.76464 | 37.42482 | 27161 ft | 312 kts | 138° |
| 2026-05-07 17:09 | -1.77980 | 37.44017 | 27161 ft | 312 kts | 138° |
| 2026-05-07 17:09 | -1.79495 | 37.45552 | 27161 ft | 312 kts | 138° |
| 2026-05-07 17:09 | -1.81012 | 37.47089 | 27161 ft | 312 kts | 138° |
| 2026-05-07 17:10 | -1.82541 | 37.48639 | 27161 ft | 312 kts | 138° |
| 2026-05-07 17:10 | -1.84061 | 37.50179 | 27161 ft | 312 kts | 138° |
| 2026-05-07 17:10 | -1.85582 | 37.51720 | 27161 ft | 312 kts | 138° |
| 2026-05-07 17:10 | -1.87101 | 37.53258 | 27161 ft | 312 kts | 138° |
| 2026-05-07 17:11 | -1.88622 | 37.54800 | 27162 ft | 312 kts | 138° |
| 2026-05-07 17:11 | -1.90154 | 37.56352 | 27161 ft | 313 kts | 138° |
| 2026-05-07 17:11 | -1.91679 | 37.57897 | 27162 ft | 313 kts | 138° |
| 2026-05-07 17:11 | -1.93202 | 37.59441 | 27162 ft | 313 kts | 138° |
| 2026-05-07 17:12 | -1.94724 | 37.60983 | 27162 ft | 313 kts | 138° |
| 2026-05-07 17:12 | -1.96246 | 37.62525 | 27162 ft | 313 kts | 138° |
| 2026-05-07 17:12 | -1.97770 | 37.64070 | 27162 ft | 313 kts | 138° |
| 2026-05-07 17:12 | -1.99294 | 37.65614 | 27160 ft | 313 kts | 138° |
| 2026-05-07 17:13 | -2.00825 | 37.67166 | 27158 ft | 313 kts | 137° |
| 2026-05-07 17:13 | -2.02347 | 37.68708 | 27157 ft | 312 kts | 137° |
| 2026-05-07 17:13 | -2.03867 | 37.70248 | 27157 ft | 312 kts | 137° |
| 2026-05-07 17:13 | -2.05387 | 37.71789 | 27157 ft | 312 kts | 137° |
| 2026-05-07 17:14 | -2.06903 | 37.73325 | 27157 ft | 312 kts | 138° |
| 2026-05-07 17:14 | -2.08423 | 37.74865 | 27157 ft | 312 kts | 137° |
| 2026-05-07 17:14 | -2.09940 | 37.76403 | 27157 ft | 312 kts | 137° |
| 2026-05-07 17:14 | -2.11470 | 37.77955 | 27158 ft | 312 kts | 137° |
| 2026-05-07 17:15 | -2.12980 | 37.79486 | 27158 ft | 312 kts | 137° |
| 2026-05-07 17:15 | -2.14498 | 37.81024 | 27158 ft | 312 kts | 137° |
| 2026-05-07 17:15 | -2.16015 | 37.82562 | 27158 ft | 312 kts | 137° |
| 2026-05-07 17:15 | -2.17534 | 37.84102 | 27158 ft | 312 kts | 137° |
| 2026-05-07 17:16 | -2.19056 | 37.85645 | 27159 ft | 312 kts | 137° |
| 2026-05-07 17:16 | -2.20573 | 37.87183 | 27159 ft | 312 kts | 137° |
| 2026-05-07 17:16 | -2.22099 | 37.88730 | 27159 ft | 312 kts | 137° |
| 2026-05-07 17:16 | -2.23618 | 37.90270 | 27159 ft | 312 kts | 137° |
| 2026-05-07 17:17 | -2.25133 | 37.91806 | 27159 ft | 312 kts | 137° |
| 2026-05-07 17:17 | -2.26656 | 37.93350 | 27159 ft | 312 kts | 137° |
| 2026-05-07 17:17 | -2.28171 | 37.94887 | 27159 ft | 312 kts | 137° |
| 2026-05-07 17:17 | -2.29688 | 37.96424 | 27159 ft | 312 kts | 137° |
| 2026-05-07 17:18 | -2.31207 | 37.97966 | 27159 ft | 312 kts | 138° |
| 2026-05-07 17:18 | -2.32732 | 37.99511 | 27159 ft | 312 kts | 137° |
| 2026-05-07 17:18 | -2.34253 | 38.01054 | 27159 ft | 312 kts | 137° |
| 2026-05-07 17:18 | -2.35770 | 38.02592 | 27159 ft | 312 kts | 137° |
| 2026-05-07 17:19 | -2.37291 | 38.04135 | 27159 ft | 312 kts | 137° |
| 2026-05-07 17:19 | -2.38810 | 38.05675 | 27159 ft | 312 kts | 137° |
| 2026-05-07 17:19 | -2.40331 | 38.07219 | 27159 ft | 312 kts | 137° |
| 2026-05-07 17:19 | -2.41854 | 38.08763 | 27160 ft | 312 kts | 137° |
| 2026-05-07 17:20 | -2.43386 | 38.10317 | 27160 ft | 312 kts | 137° |
| 2026-05-07 17:20 | -2.44908 | 38.11861 | 27160 ft | 313 kts | 137° |
| 2026-05-07 17:20 | -2.46426 | 38.13400 | 27160 ft | 313 kts | 137° |
| 2026-05-07 17:20 | -2.47572 | 38.14563 | 27160 ft | 313 kts | 137° |
| 2026-05-07 17:21 | -2.48835 | 38.15845 | 27160 ft | 313 kts | 138° |
| 2026-05-07 17:21 | -2.50357 | 38.17389 | 27160 ft | 313 kts | 137° |
| 2026-05-07 17:21 | -2.51877 | 38.18931 | 27160 ft | 313 kts | 137° |
| 2026-05-07 17:21 | -2.53406 | 38.20482 | 27160 ft | 313 kts | 137° |
| 2026-05-07 17:22 | -2.54925 | 38.22024 | 27160 ft | 313 kts | 137° |
| 2026-05-07 17:22 | -2.56447 | 38.23567 | 27160 ft | 313 kts | 137° |
| 2026-05-07 17:22 | -2.57957 | 38.25100 | 27160 ft | 313 kts | 137° |
| 2026-05-07 17:22 | -2.59477 | 38.26642 | 27161 ft | 313 kts | 137° |
| 2026-05-07 17:23 | -2.61001 | 38.28189 | 27160 ft | 313 kts | 137° |
| 2026-05-07 17:23 | -2.62516 | 38.29725 | 27161 ft | 313 kts | 137° |
| 2026-05-07 17:23 | -2.64044 | 38.31276 | 27161 ft | 313 kts | 137° |
| 2026-05-07 17:23 | -2.65562 | 38.32817 | 27161 ft | 313 kts | 137° |
| 2026-05-07 17:24 | -2.67067 | 38.34344 | 27161 ft | 313 kts | 137° |
| 2026-05-07 17:24 | -2.68592 | 38.35892 | 27161 ft | 314 kts | 137° |
| 2026-05-07 17:24 | -2.70115 | 38.37438 | 27161 ft | 314 kts | 137° |
| 2026-05-07 17:24 | -2.71640 | 38.38986 | 27161 ft | 314 kts | 137° |
| 2026-05-07 17:25 | -2.73167 | 38.40535 | 27161 ft | 314 kts | 137° |
| 2026-05-07 17:25 | -2.74699 | 38.42091 | 27161 ft | 314 kts | 137° |
| 2026-05-07 17:25 | -2.76224 | 38.43639 | 27161 ft | 314 kts | 137° |
| 2026-05-07 17:25 | -2.77750 | 38.45188 | 27161 ft | 314 kts | 137° |
| 2026-05-07 17:26 | -2.79278 | 38.46740 | 27161 ft | 314 kts | 137° |
| 2026-05-07 17:26 | -2.80803 | 38.48288 | 27161 ft | 314 kts | 137° |
| 2026-05-07 17:26 | -2.82334 | 38.49842 | 27161 ft | 314 kts | 137° |
| 2026-05-07 17:26 | -2.83861 | 38.51392 | 27162 ft | 314 kts | 137° |
| 2026-05-07 17:27 | -2.85403 | 38.52958 | 27162 ft | 314 kts | 137° |
| 2026-05-07 17:27 | -2.86933 | 38.54512 | 27162 ft | 314 kts | 137° |
| 2026-05-07 17:27 | -2.88460 | 38.56062 | 27162 ft | 314 kts | 137° |
| 2026-05-07 17:27 | -2.89985 | 38.57611 | 27161 ft | 314 kts | 137° |
| 2026-05-07 17:28 | -2.91515 | 38.59165 | 27161 ft | 314 kts | 138° |
| 2026-05-07 17:28 | -2.93039 | 38.60713 | 27161 ft | 315 kts | 138° |
| 2026-05-07 17:28 | -2.94566 | 38.62263 | 27162 ft | 315 kts | 138° |
| 2026-05-07 17:28 | -2.96109 | 38.63830 | 27162 ft | 315 kts | 138° |
| 2026-05-07 17:29 | -2.97639 | 38.65384 | 27161 ft | 316 kts | 137° |
| 2026-05-07 17:29 | -2.99155 | 38.66924 | 27156 ft | 316 kts | 137° |
| 2026-05-07 17:29 | -3.00690 | 38.68483 | 27156 ft | 316 kts | 137° |
| 2026-05-07 17:29 | -3.02225 | 38.70042 | 27156 ft | 316 kts | 137° |
| 2026-05-07 17:30 | -3.03763 | 38.71605 | 27157 ft | 316 kts | 137° |
| 2026-05-07 17:30 | -3.05304 | 38.73171 | 27157 ft | 316 kts | 137° |
| 2026-05-07 17:30 | -3.06856 | 38.74747 | 27158 ft | 317 kts | 137° |
| 2026-05-07 17:30 | -3.08397 | 38.76313 | 27158 ft | 317 kts | 137° |
| 2026-05-07 17:31 | -3.09919 | 38.77860 | 27130 ft | 306 kts | 138° |
| 2026-05-07 17:31 | -3.11379 | 38.79344 | 27032 ft | 296 kts | 138° |
| 2026-05-07 17:31 | -3.12813 | 38.80800 | 26742 ft | 293 kts | 138° |
| 2026-05-07 17:31 | -3.14231 | 38.82241 | 26373 ft | 291 kts | 138° |
| 2026-05-07 17:32 | -3.15644 | 38.83677 | 25930 ft | 292 kts | 137° |
| 2026-05-07 17:32 | -3.17083 | 38.85138 | 25456 ft | 294 kts | 137° |
| 2026-05-07 17:32 | -3.18513 | 38.86592 | 24987 ft | 295 kts | 137° |
| 2026-05-07 17:32 | -3.19946 | 38.88048 | 24518 ft | 296 kts | 137° |
| 2026-05-07 17:33 | -3.21390 | 38.89515 | 24047 ft | 296 kts | 137° |
| 2026-05-07 17:33 | -3.22830 | 38.90978 | 23576 ft | 297 kts | 137° |
| 2026-05-07 17:33 | -3.24276 | 38.92448 | 23103 ft | 297 kts | 137° |
| 2026-05-07 17:33 | -3.25715 | 38.93911 | 22632 ft | 297 kts | 137° |
| 2026-05-07 17:34 | -3.27171 | 38.95391 | 22155 ft | 296 kts | 136° |
| 2026-05-07 17:34 | -3.28611 | 38.96855 | 21682 ft | 296 kts | 136° |
| 2026-05-07 17:34 | -3.30046 | 38.98313 | 21209 ft | 295 kts | 136° |
| 2026-05-07 17:34 | -3.31476 | 38.99767 | 20737 ft | 295 kts | 136° |
| 2026-05-07 17:35 | -3.32908 | 39.01223 | 20263 ft | 294 kts | 136° |
| 2026-05-07 17:35 | -3.34333 | 39.02672 | 19789 ft | 293 kts | 136° |
| 2026-05-07 17:35 | -3.35748 | 39.04110 | 19317 ft | 292 kts | 135° |
| 2026-05-07 17:35 | -3.37171 | 39.05558 | 18840 ft | 290 kts | 135° |
| 2026-05-07 17:36 | -3.38582 | 39.06992 | 18366 ft | 289 kts | 135° |
| 2026-05-07 17:36 | -3.39983 | 39.08417 | 17893 ft | 288 kts | 135° |
| 2026-05-07 17:36 | -3.41378 | 39.09836 | 17419 ft | 286 kts | 135° |
| 2026-05-07 17:36 | -3.42767 | 39.11248 | 16945 ft | 285 kts | 135° |
| 2026-05-07 17:37 | -3.44147 | 39.12651 | 16472 ft | 283 kts | 134° |
| 2026-05-07 17:37 | -3.45518 | 39.14047 | 15999 ft | 282 kts | 134° |
| 2026-05-07 17:37 | -3.46896 | 39.15449 | 15522 ft | 280 kts | 134° |
| 2026-05-07 17:37 | -3.48193 | 39.16768 | 15069 ft | 279 kts | 134° |
| 2026-05-07 17:38 | -3.49548 | 39.18146 | 14594 ft | 277 kts | 134° |
| 2026-05-07 17:38 | -3.50887 | 39.19509 | 14122 ft | 275 kts | 134° |
| 2026-05-07 17:38 | -3.52223 | 39.20867 | 13648 ft | 274 kts | 134° |
| 2026-05-07 17:38 | -3.53545 | 39.22212 | 13175 ft | 272 kts | 134° |
| 2026-05-07 17:39 | -3.54860 | 39.23551 | 12702 ft | 270 kts | 134° |
| 2026-05-07 17:39 | -3.56176 | 39.24889 | 12226 ft | 268 kts | 134° |
| 2026-05-07 17:39 | -3.57483 | 39.26219 | 11758 ft | 270 kts | 134° |
| 2026-05-07 17:39 | -3.58799 | 39.27558 | 11291 ft | 271 kts | 134° |
| 2026-05-07 17:40 | -3.60120 | 39.28903 | 10823 ft | 272 kts | 134° |
| 2026-05-07 17:40 | -3.61445 | 39.30251 | 10383 ft | 272 kts | 134° |
| 2026-05-07 17:40 | -3.62766 | 39.31595 | 9965 ft | 273 kts | 134° |
| 2026-05-07 17:40 | -3.64094 | 39.32948 | 9545 ft | 273 kts | 134° |
| 2026-05-07 17:41 | -3.65436 | 39.34314 | 9122 ft | 274 kts | 134° |
| 2026-05-07 17:41 | -3.66767 | 39.35669 | 8702 ft | 274 kts | 134° |
| 2026-05-07 17:41 | -3.68098 | 39.37024 | 8281 ft | 274 kts | 134° |
| 2026-05-07 17:41 | -3.69429 | 39.38379 | 7861 ft | 274 kts | 134° |
| 2026-05-07 17:42 | -3.70755 | 39.39729 | 7442 ft | 273 kts | 134° |
| 2026-05-07 17:42 | -3.72077 | 39.41075 | 7022 ft | 272 kts | 134° |
| 2026-05-07 17:42 | -3.73399 | 39.42421 | 6602 ft | 272 kts | 134° |
| 2026-05-07 17:42 | -3.74728 | 39.43774 | 6177 ft | 271 kts | 134° |
| 2026-05-07 17:43 | -3.76047 | 39.45116 | 5755 ft | 270 kts | 134° |
| 2026-05-07 17:43 | -3.77361 | 39.46454 | 5333 ft | 270 kts | 134° |
| 2026-05-07 17:43 | -3.78669 | 39.47786 | 4911 ft | 269 kts | 134° |
| 2026-05-07 17:43 | -3.79969 | 39.49118 | 4531 ft | 267 kts | 136° |
| 2026-05-07 17:44 | -3.81255 | 39.50422 | 4264 ft | 261 kts | 136° |
| 2026-05-07 17:44 | -3.82527 | 39.51714 | 4013 ft | 260 kts | 136° |
| 2026-05-07 17:44 | -3.83797 | 39.53009 | 3761 ft | 259 kts | 136° |
| 2026-05-07 17:44 | -3.85053 | 39.54288 | 3514 ft | 258 kts | 136° |
| 2026-05-07 17:45 | -3.86301 | 39.55560 | 3301 ft | 255 kts | 136° |
| 2026-05-07 17:45 | -3.87540 | 39.56817 | 3100 ft | 253 kts | 136° |
| 2026-05-07 17:45 | -3.88773 | 39.58070 | 2900 ft | 252 kts | 136° |
| 2026-05-07 17:45 | -3.89997 | 39.59314 | 2701 ft | 251 kts | 136° |
| 2026-05-07 17:46 | -3.91228 | 39.60547 | 2497 ft | 250 kts | 140° |
| 2026-05-07 17:46 | -3.92685 | 39.61484 | 2299 ft | 247 kts | 149° |
| 2026-05-07 17:46 | -3.94140 | 39.62375 | 2058 ft | 245 kts | 150° |
| 2026-05-07 17:46 | -3.95579 | 39.63254 | 1798 ft | 241 kts | 150° |
| 2026-05-07 17:47 | -3.97024 | 39.64038 | 1487 ft | 231 kts | 165° |
| 2026-05-07 17:47 | -3.98500 | 39.63986 | 1487 ft | 199 kts | 202° |
| 2026-05-07 17:47 | -3.99511 | 39.63218 | 1477 ft | 171 kts | 232° |
| 2026-05-07 17:47 | -4.00115 | 39.62223 | 976 ft | 166 kts | 241° |
| 2026-05-07 17:48 | -4.00660 | 39.61238 | 520 ft | 153 kts | 234° |
| 2026-05-07 17:48 | -4.01421 | 39.60572 | 233 ft | 138 kts | 207° |
| 2026-05-07 17:48 | -4.02184 | 39.60152 | 193 ft | 114 kts | 208° |
| 2026-05-07 17:48 | -4.02636 | 39.59910 | 196 ft | 36 kts | 185° |
| 2026-05-07 17:49 | -4.02810 | 39.60000 | 198 ft | 22 kts | 140° |
| 2026-05-07 17:49 | -4.02888 | 39.60062 | 204 ft | 7 kts | 143° |
| 2026-05-07 17:49 | -4.02895 | 39.60066 | 205 ft | 0 kts | 143° |